CheckWX is a tool to help pilots better visualize weather data.  It is not intended as a substitute for an official pre-flight weather briefing.

02:57:39 UTC

KLAW METAR
Lawton-Fort Sill Regional Airport
Lawton, Oklahoma, USA
Current

1 hour ago

KLAW 180153Z AUTO 04009KT 10SM CLR 04/M04 A3011 RMK AO2 SLP205 T00441044
Observed
Feb-18 @ 01:53 UTC
Wind
  • 040° at 9 KTS
Visibility
10 SM
Flight Rules
VFR
Cloud Levels
  • Clear skies
Temperature
C / 39°F
Dewpoint
-4°C / 25°F
Humidity
56%
Altimeter
30.11" Hg
Pressure
1020.5 hPa
Previous

2 hours ago

KLAW 180053Z AUTO 04010KT 10SM CLR 07/M04 A3006 RMK AO2 SLP187 T00671044
Observed
Feb-18 @ 00:53 UTC
Wind
  • 040° at 10 KTS
Visibility
10 SM
Flight Rules
VFR
Cloud Levels
  • Clear skies
Temperature
C / 45°F
Dewpoint
-4°C / 25°F
Humidity
46%
Altimeter
30.06" Hg
Pressure
1018.7 hPa
Previous

3 hours ago

KLAW 172353Z 04013KT 10SM CLR 09/M05 A3001 RMK AO2 SLP168 T00941050 10128 20094 53016
Observed
Feb-17 @ 23:53 UTC
Wind
  • 040° at 13 KTS
Visibility
10 SM
Flight Rules
VFR
Cloud Levels
  • Clear skies
Temperature
C / 48°F
Dewpoint
-5°C / 23°F
Humidity
37%
Altimeter
30.01" Hg
Pressure
1016.8 hPa